Time;durP1;ratioP1;P1;durP2;ratioP2;P2;SDS_P1;SDS_P2;PMS_P1;PMS_P2;Temp;Humidity;BMP_temperature;BMP_pressure;BME280_temperature;BME280_humidity;BME280_pressure;Samples;Min_cycle;Max_cycle;Signal;HPM_P1;HPM_P2
2021/12/20 00:00:34;;;;;;;2.60;2.40;;;;;;;;;;4906529;28;32345;-72
2021/12/20 00:03:04;;;;;;;2.47;2.38;;;;;;;;;;4906405;28;32612;-72
2021/12/20 00:05:32;;;;;;;2.33;2.22;;;;;;;;;;4906278;28;32375;-73
2021/12/20 00:08:00;;;;;;;2.50;2.40;;;;;;;;;;4906609;28;32465;-72
2021/12/20 00:10:28;;;;;;;2.60;2.50;;;;;;;;;;4906484;28;32467;-74
2021/12/20 00:12:56;;;;;;;2.17;2.08;;;;;;;;;;4906417;28;34562;-73
2021/12/20 00:15:24;;;;;;;2.55;2.45;;;;;;;;;;4906642;28;32497;-74
2021/12/20 00:17:52;;;;;;;2.17;2.08;;;;;;;;;;4907054;28;32317;-72
2021/12/20 00:20:22;;;;;;;2.50;2.30;;;;;;;;;;4906379;28;32270;-69
2021/12/20 00:22:51;;;;;;;2.40;2.30;;;;;;;;;;4906046;28;32459;-73
2021/12/20 00:25:19;;;;;;;2.20;2.10;;;;;;;;;;4905756;28;32693;-77
2021/12/20 00:27:47;;;;;;;1.92;1.83;;;;;;;;;;4906574;28;32401;-70
2021/12/20 00:30:17;;;;;;;2.10;2.00;;;;;;;;;;4906002;28;32394;-74
2021/12/20 00:32:45;;;;;;;2.30;2.20;;;;;;;;;;4906465;28;32373;-70
2021/12/20 00:35:13;;;;;;;2.00;1.90;;;;;;;;;;4906081;28;33946;-69
2021/12/20 00:40:28;;;;;;;1.73;1.63;;;;;;;;;;4906186;28;32373;-70
2021/12/20 00:43:00;;;;;;;2.10;2.00;;;;;;;;;;4905883;28;32459;-69
2021/12/20 00:45:31;;;;;;;2.13;2.03;;;;;;;;;;4905773;28;35491;-71
2021/12/20 00:47:59;;;;;;;2.00;1.90;;;;;;;;;;4906414;28;32353;-70
2021/12/20 00:50:28;;;;;;;1.70;1.60;;;;;;;;;;4924850;28;32277;-69
2021/12/20 00:52:59;;;;;;;2.00;1.90;;;;;;;;;;4925502;28;32641;-72
2021/12/20 00:55:29;;;;;;;1.85;1.75;;;;;;;;;;4924975;28;32301;-69
2021/12/20 00:57:59;;;;;;;1.70;1.60;;;;;;;;;;4925095;28;34535;-71
2021/12/20 01:00:29;;;;;;;1.77;1.67;;;;;;;;;;4924867;28;32372;-73
2021/12/20 01:02:58;;;;;;;1.90;1.73;;;;;;;;;;4922732;28;32472;-73
2021/12/20 01:05:27;;;;;;;1.67;1.58;;;;;;;;;;4922558;28;32290;-72
2021/12/20 01:08:04;;;;;;;1.80;1.70;;;;;;;;;;4909230;28;33916;-69
2021/12/20 01:10:33;;;;;;;1.38;1.33;;;;;;;;;;4903570;28;32465;-70
2021/12/20 01:13:02;;;;;;;1.58;1.50;;;;;;;;;;4904077;28;32563;-70
2021/12/20 01:15:34;;;;;;;1.50;1.40;;;;;;;;;;4910073;28;32379;-70
2021/12/20 01:18:05;;;;;;;1.63;1.52;;;;;;;;;;4903570;28;32389;-71
2021/12/20 01:20:35;;;;;;;1.52;1.42;;;;;;;;;;4904631;28;34031;-73
2021/12/20 01:23:05;;;;;;;1.75;1.65;;;;;;;;;;4903624;28;32609;-70
2021/12/20 01:25:33;;;;;;;1.85;1.75;;;;;;;;;;4902685;28;32489;-72
2021/12/20 01:28:02;;;;;;;1.30;1.30;;;;;;;;;;4902770;28;32427;-70
2021/12/20 01:30:30;;;;;;;1.55;1.50;;;;;;;;;;4902893;28;33950;-71
2021/12/20 01:32:58;;;;;;;1.80;1.70;;;;;;;;;;4902924;28;32532;-70
2021/12/20 01:35:28;;;;;;;1.52;1.45;;;;;;;;;;4903229;28;32431;-69
2021/12/20 01:37:59;;;;;;;1.40;1.30;;;;;;;;;;4904424;28;32324;-71
2021/12/20 01:40:30;;;;;;;1.60;1.60;;;;;;;;;;4905595;28;32336;-69
2021/12/20 01:42:59;;;;;;;1.48;1.38;;;;;;;;;;4905969;28;33990;-70
2021/12/20 01:45:29;;;;;;;1.30;1.30;;;;;;;;;;4905039;28;32357;-71
2021/12/20 01:48:05;;;;;;;1.50;1.40;;;;;;;;;;4905294;28;32487;-70
2021/12/20 01:50:49;;;;;;;1.70;1.60;;;;;;;;;;4919149;28;32112;-71
2021/12/20 01:53:22;;;;;;;1.70;1.60;;;;;;;;;;4924236;28;34944;-73
2021/12/20 01:55:53;;;;;;;1.60;1.50;;;;;;;;;;4924618;28;32222;-70
2021/12/20 01:58:21;;;;;;;1.50;1.50;;;;;;;;;;4924565;28;32515;-72
2021/12/20 02:04:05;;;;;;;1.30;1.30;;;;;;;;;;4305911;32;32415;-69
2021/12/20 02:06:37;;;;;;;1.25;1.25;;;;;;;;;;4926853;28;32427;-70
2021/12/20 02:09:08;;;;;;;1.30;1.30;;;;;;;;;;4919570;28;35092;-69
2021/12/20 02:11:37;;;;;;;1.65;1.50;;;;;;;;;;4919545;28;32400;-70
2021/12/20 02:14:06;;;;;;;1.42;1.42;;;;;;;;;;4919565;28;32401;-71
2021/12/20 02:16:34;;;;;;;1.40;1.30;;;;;;;;;;4919057;28;32498;-70
2021/12/20 02:19:10;;;;;;;1.20;1.20;;;;;;;;;;4902103;28;32618;-69
2021/12/20 02:21:40;;;;;;;1.48;1.48;;;;;;;;;;4919842;28;35657;-70
2021/12/20 02:24:09;;;;;;;3.67;1.52;;;;;;;;;;4919587;28;32336;-71
2021/12/20 02:26:37;;;;;;;1.40;1.40;;;;;;;;;;4925177;28;32209;-70
2021/12/20 02:29:08;;;;;;;1.33;1.33;;;;;;;;;;4938718;28;32363;-71
2021/12/20 02:37:20;;;;;;;1.42;1.33;;;;;;;;;;4927263;28;32215;-70
2021/12/20 02:39:48;;;;;;;1.02;1.02;;;;;;;;;;4907469;28;32365;-68
2021/12/20 02:42:21;;;;;;;1.40;1.30;;;;;;;;;;4927935;28;32452;-70
2021/12/20 02:45:05;;;;;;;1.40;1.30;;;;;;;;;;4920862;28;34350;-74
2021/12/20 02:47:33;;;;;;;1.50;1.40;;;;;;;;;;4927244;28;32303;-71
2021/12/20 02:50:01;;;;;;;1.60;1.50;;;;;;;;;;4932994;28;32598;-71
2021/12/20 02:52:32;;;;;;;1.40;1.30;;;;;;;;;;4926634;28;32401;-70
2021/12/20 02:55:00;;;;;;;2.00;1.45;;;;;;;;;;4929215;28;35677;-70
2021/12/20 02:57:28;;;;;;;1.55;1.45;;;;;;;;;;4923753;28;32547;-71
2021/12/20 02:59:56;;;;;;;1.52;1.42;;;;;;;;;;4918013;28;32760;-70
2021/12/20 03:02:24;;;;;;;1.60;1.50;;;;;;;;;;4916349;28;32467;-70
2021/12/20 03:04:53;;;;;;;1.60;1.50;;;;;;;;;;4917640;28;32617;-68
2021/12/20 03:07:25;;;;;;;1.40;1.35;;;;;;;;;;4917464;28;33951;-68
2021/12/20 03:10:01;;;;;;;1.58;1.48;;;;;;;;;;4938107;28;32458;-67
2021/12/20 03:12:32;;;;;;;1.55;1.52;;;;;;;;;;4937743;28;32322;-68
2021/12/20 03:15:05;;;;;;;1.63;1.52;;;;;;;;;;4927384;28;32413;-67
2021/12/20 03:17:33;;;;;;;3.13;1.40;;;;;;;;;;4922037;28;34798;-68
2021/12/20 03:20:01;;;;;;;1.50;1.40;;;;;;;;;;4925186;28;32463;-66
2021/12/20 03:22:29;;;;;;;1.60;1.50;;;;;;;;;;4925277;28;32248;-67
2021/12/20 03:24:59;;;;;;;1.65;1.55;;;;;;;;;;4924965;28;32474;-65
2021/12/20 03:27:27;;;;;;;1.60;1.50;;;;;;;;;;4925276;28;32560;-66
2021/12/20 03:29:55;;;;;;;1.52;1.45;;;;;;;;;;4925207;28;33990;-65
2021/12/20 03:32:23;;;;;;;1.60;1.50;;;;;;;;;;4925105;28;32845;-68
2021/12/20 03:34:51;;;;;;;1.63;1.52;;;;;;;;;;4924799;28;32419;-66
2021/12/20 03:37:19;;;;;;;1.33;1.33;;;;;;;;;;4923678;28;32753;-66
2021/12/20 03:39:47;;;;;;;1.58;1.48;;;;;;;;;;4924775;28;34554;-65
2021/12/20 03:42:18;;;;;;;1.73;1.63;;;;;;;;;;4922142;28;32594;-68
2021/12/20 03:44:46;;;;;;;1.50;1.50;;;;;;;;;;4922107;28;32332;-67
2021/12/20 03:47:15;;;;;;;1.90;1.80;;;;;;;;;;4923015;28;32454;-65
2021/12/20 03:49:44;;;;;;;3.58;1.83;;;;;;;;;;4923611;28;32364;-66
2021/12/20 03:52:12;;;;;;;2.05;1.95;;;;;;;;;;4924514;28;34542;-67
2021/12/20 03:54:40;;;;;;;2.13;2.03;;;;;;;;;;4924188;28;32524;-65
2021/12/20 03:57:09;;;;;;;2.08;1.95;;;;;;;;;;4924805;28;32335;-67
2021/12/20 03:59:38;;;;;;;1.80;1.70;;;;;;;;;;4925390;28;32497;-67
2021/12/20 04:02:07;;;;;;;1.67;1.63;;;;;;;;;;4924135;28;34593;-66
2021/12/20 04:04:35;;;;;;;2.22;2.13;;;;;;;;;;4924587;28;32659;-65
2021/12/20 04:07:04;;;;;;;2.33;2.13;;;;;;;;;;4924753;28;32357;-67
2021/12/20 04:09:32;;;;;;;2.15;2.05;;;;;;;;;;4924778;28;32328;-66
2021/12/20 04:12:00;;;;;;;2.10;2.00;;;;;;;;;;4925017;28;32425;-67
2021/12/20 04:14:28;;;;;;;1.85;1.75;;;;;;;;;;4923867;28;34516;-67
2021/12/20 04:16:57;;;;;;;2.30;2.20;;;;;;;;;;4912648;28;32433;-67
2021/12/20 04:19:25;;;;;;;2.22;2.13;;;;;;;;;;4913447;28;32216;-66
2021/12/20 04:21:53;;;;;;;2.33;2.22;;;;;;;;;;4914171;28;32261;-66
2021/12/20 04:24:21;;;;;;;2.65;2.10;;;;;;;;;;4914461;28;34525;-65
2021/12/20 04:26:49;;;;;;;2.50;2.30;;;;;;;;;;4912017;28;32512;-67
2021/12/20 04:29:18;;;;;;;2.13;2.03;;;;;;;;;;4911202;28;32415;-67
2021/12/20 04:31:46;;;;;;;2.28;2.17;;;;;;;;;;4914837;28;32609;-65
2021/12/20 04:34:17;;;;;;;2.65;2.45;;;;;;;;;;4833595;28;32500;-67
2021/12/20 04:36:45;;;;;;;2.70;2.55;;;;;;;;;;4861248;29;34583;-66
2021/12/20 04:39:17;;;;;;;2.30;2.20;;;;;;;;;;4866670;29;32300;-65
2021/12/20 04:41:45;;;;;;;2.63;2.53;;;;;;;;;;4867733;29;32315;-68
2021/12/20 04:44:14;;;;;;;2.75;2.55;;;;;;;;;;4867407;29;32215;-68
2021/12/20 04:46:42;;;;;;;2.72;2.63;;;;;;;;;;4867062;29;34519;-66
2021/12/20 04:49:10;;;;;;;2.50;2.40;;;;;;;;;;4866264;29;32245;-66
2021/12/20 04:51:39;;;;;;;2.92;2.78;;;;;;;;;;4864301;29;33453;-67
2021/12/20 04:54:07;;;;;;;2.70;2.55;;;;;;;;;;4856318;29;32463;-68
2021/12/20 04:56:35;;;;;;;2.72;2.53;;;;;;;;;;4856698;29;32396;-67
2021/12/20 04:59:03;;;;;;;3.00;2.70;;;;;;;;;;4855412;29;35623;-67
2021/12/20 05:01:31;;;;;;;2.90;2.70;;;;;;;;;;4853384;29;32353;-66
2021/12/20 05:03:59;;;;;;;2.58;2.47;;;;;;;;;;4859910;29;32562;-66
2021/12/20 05:06:29;;;;;;;2.97;2.78;;;;;;;;;;4864940;29;32256;-68
2021/12/20 05:08:59;;;;;;;3.00;2.90;;;;;;;;;;4857911;29;34730;-67
2021/12/20 05:11:29;;;;;;;3.50;3.17;;;;;;;;;;4856856;29;32375;-68
2021/12/20 05:13:57;;;;;;;2.65;2.53;;;;;;;;;;4856231;29;32338;-70
2021/12/20 05:16:25;;;;;;;3.08;2.88;;;;;;;;;;4856913;29;32781;-69
2021/12/20 05:18:53;;;;;;;3.03;2.92;;;;;;;;;;4858236;29;33739;-68
2021/12/20 05:21:21;;;;;;;2.90;2.80;;;;;;;;;;4856472;29;35123;-69
2021/12/20 05:23:49;;;;;;;2.65;2.45;;;;;;;;;;4856458;29;32451;-67
2021/12/20 05:26:18;;;;;;;2.53;2.42;;;;;;;;;;4857791;29;32303;-68
2021/12/20 05:28:46;;;;;;;3.53;2.53;;;;;;;;;;4857042;29;32476;-69
2021/12/20 05:31:14;;;;;;;2.85;2.65;;;;;;;;;;4855325;29;35546;-68
2021/12/20 05:33:43;;;;;;;3.85;2.80;;;;;;;;;;4857035;29;32582;-69
2021/12/20 05:36:11;;;;;;;2.85;2.72;;;;;;;;;;4857779;29;32340;-71
2021/12/20 05:38:39;;;;;;;4.40;2.50;;;;;;;;;;4855546;29;32444;-68
2021/12/20 05:41:07;;;;;;;2.95;2.75;;;;;;;;;;4856818;29;32477;-69
2021/12/20 05:43:37;;;;;;;2.72;2.60;;;;;;;;;;4862600;29;35486;-68
2021/12/20 05:46:05;;;;;;;2.60;2.40;;;;;;;;;;4847492;29;32664;-68
2021/12/20 05:48:33;;;;;;;2.45;2.33;;;;;;;;;;4847664;29;32470;-68
2021/12/20 05:51:01;;;;;;;2.83;2.65;;;;;;;;;;4850568;29;32397;-68
2021/12/20 05:53:29;;;;;;;2.60;2.47;;;;;;;;;;4855854;29;34500;-67
2021/12/20 05:55:57;;;;;;;3.05;2.85;;;;;;;;;;4854682;29;32394;-70
2021/12/20 05:58:25;;;;;;;3.15;2.47;;;;;;;;;;4860629;29;32558;-68
2021/12/20 06:00:55;;;;;;;1226.25;911.63;;;;;;;;;;4865322;29;32464;-67
2021/12/20 06:03:23;;;;;;;698.90;623.55;;;;;;;;;;4854252;29;32676;-66
2021/12/20 06:05:51;;;;;;;585.75;522.75;;;;;;;;;;4857302;29;35368;-66
2021/12/20 06:08:19;;;;;;;494.95;440.33;;;;;;;;;;4856022;29;32587;-67
2021/12/20 06:10:47;;;;;;;424.60;360.13;;;;;;;;;;4862271;29;32517;-67
2021/12/20 06:13:15;;;;;;;376.35;297.98;;;;;;;;;;4856494;29;32498;-65
2021/12/20 06:15:43;;;;;;;303.13;242.25;;;;;;;;;;4856764;29;34603;-65
2021/12/20 06:18:12;;;;;;;222.68;172.32;;;;;;;;;;4865940;29;32254;-67
2021/12/20 06:20:44;;;;;;;186.23;141.75;;;;;;;;;;4861261;29;32403;-65
2021/12/20 06:23:12;;;;;;;139.38;106.63;;;;;;;;;;4853452;29;32579;-66
2021/12/20 06:25:41;;;;;;;110.43;86.40;;;;;;;;;;4856916;29;32917;-65
2021/12/20 06:28:09;;;;;;;84.38;64.72;;;;;;;;;;4855848;29;32450;-66
2021/12/20 06:30:37;;;;;;;60.55;45.28;;;;;;;;;;4855502;29;32779;-65
2021/12/20 06:33:05;;;;;;;56.35;40.95;;;;;;;;;;4851326;29;32678;-65
2021/12/20 06:35:35;;;;;;;26.70;23.42;;;;;;;;;;4845821;29;32763;-65
2021/12/20 06:38:04;;;;;;;20.80;17.90;;;;;;;;;;4862476;29;35159;-65
2021/12/20 06:40:35;;;;;;;12.70;10.93;;;;;;;;;;4865059;29;32385;-65
2021/12/20 06:43:03;;;;;;;10.13;9.07;;;;;;;;;;4864687;29;32384;-66
2021/12/20 06:45:33;;;;;;;6.45;5.95;;;;;;;;;;4865407;29;32409;-66
2021/12/20 06:48:01;;;;;;;4.68;4.28;;;;;;;;;;4863954;29;32542;-66
2021/12/20 06:50:29;;;;;;;3.45;3.25;;;;;;;;;;4867863;29;32353;-64
2021/12/20 06:52:58;;;;;;;2.72;2.53;;;;;;;;;;4868720;29;32486;-66
2021/12/20 06:55:27;;;;;;;2.10;2.00;;;;;;;;;;4868828;29;32331;-64
2021/12/20 06:57:55;;;;;;;1.90;1.80;;;;;;;;;;4868571;29;32490;-66
2021/12/20 07:00:23;;;;;;;1.80;1.70;;;;;;;;;;4868485;29;35251;-65
2021/12/20 07:02:51;;;;;;;1.70;1.60;;;;;;;;;;4868179;29;32542;-66
2021/12/20 07:05:19;;;;;;;1.48;1.38;;;;;;;;;;4868298;29;32357;-65
2021/12/20 07:07:47;;;;;;;1.67;1.58;;;;;;;;;;4868007;29;32486;-65
2021/12/20 07:10:17;;;;;;;1.50;1.40;;;;;;;;;;4868376;29;32428;-66
2021/12/20 07:12:45;;;;;;;1.52;1.42;;;;;;;;;;4868677;29;32440;-65
2021/12/20 07:15:14;;;;;;;2.45;1.48;;;;;;;;;;4868502;29;32382;-66
2021/12/20 07:17:43;;;;;;;1.63;1.52;;;;;;;;;;4867989;29;32429;-66
2021/12/20 07:20:13;;;;;;;1.48;1.38;;;;;;;;;;4868091;29;32441;-65
2021/12/20 07:22:42;;;;;;;1.10;1.10;;;;;;;;;;4868030;29;35565;-66
2021/12/20 07:25:11;;;;;;;1.38;1.27;;;;;;;;;;4867881;29;32529;-66
2021/12/20 07:27:41;;;;;;;1.20;1.20;;;;;;;;;;4868095;29;32342;-66
2021/12/20 07:30:11;;;;;;;1.08;1.08;;;;;;;;;;4868049;29;32406;-66
2021/12/20 07:32:39;;;;;;;1.40;1.30;;;;;;;;;;4868592;29;32534;-66
2021/12/20 07:35:08;;;;;;;1.55;1.45;;;;;;;;;;4867934;29;32135;-67
2021/12/20 07:37:37;;;;;;;1.10;1.02;;;;;;;;;;4868155;29;32432;-67
2021/12/20 07:40:07;;;;;;;1.30;1.20;;;;;;;;;;4867608;29;32292;-66
2021/12/20 07:42:35;;;;;;;1.48;1.38;;;;;;;;;;4868312;29;32386;-66
2021/12/20 07:45:07;;;;;;;1.13;1.10;;;;;;;;;;4867587;29;34676;-66
2021/12/20 07:47:35;;;;;;;1.30;1.20;;;;;;;;;;4868226;29;32556;-67
2021/12/20 07:50:04;;;;;;;1.10;1.05;;;;;;;;;;4868019;29;32340;-66
2021/12/20 07:52:33;;;;;;;0.95;0.95;;;;;;;;;;4867685;29;32519;-65
2021/12/20 07:55:01;;;;;;;0.95;0.95;;;;;;;;;;4867714;29;32236;-67
2021/12/20 07:57:29;;;;;;;1.00;1.00;;;;;;;;;;4867434;29;32593;-66
2021/12/20 07:59:57;;;;;;;1.25;1.15;;;;;;;;;;4867632;29;32368;-65
2021/12/20 08:02:27;;;;;;;1.25;1.17;;;;;;;;;;4867345;29;32408;-64
2021/12/20 08:04:55;;;;;;;0.90;0.90;;;;;;;;;;4866924;29;32530;-65
2021/12/20 08:07:23;;;;;;;1.42;1.00;;;;;;;;;;4867468;29;35793;-66
2021/12/20 08:09:51;;;;;;;1.20;1.10;;;;;;;;;;4867521;29;32401;-66
2021/12/20 08:12:19;;;;;;;1.20;1.10;;;;;;;;;;4867620;29;32322;-66
2021/12/20 08:14:48;;;;;;;1.50;1.40;;;;;;;;;;4867484;29;32324;-66
2021/12/20 08:17:16;;;;;;;1.15;1.13;;;;;;;;;;4867176;29;32485;-65
2021/12/20 08:19:45;;;;;;;1.50;1.40;;;;;;;;;;4867204;29;32495;-65
2021/12/20 08:22:13;;;;;;;1.50;1.40;;;;;;;;;;4867080;29;32153;-66
2021/12/20 08:24:41;;;;;;;1.35;1.10;;;;;;;;;;4866826;29;32393;-64
2021/12/20 08:27:09;;;;;;;1.27;1.25;;;;;;;;;;4867398;29;32325;-66
2021/12/20 08:29:37;;;;;;;1.45;1.35;;;;;;;;;;4866416;29;34014;-67
2021/12/20 08:32:06;;;;;;;1.45;1.40;;;;;;;;;;4867243;29;32591;-66
2021/12/20 08:34:34;;;;;;;1.45;1.35;;;;;;;;;;4866833;29;32389;-65
2021/12/20 08:37:04;;;;;;;1.65;1.55;;;;;;;;;;4867252;29;32525;-65
2021/12/20 08:39:34;;;;;;;1.42;1.33;;;;;;;;;;4866855;29;34621;-65
2021/12/20 08:42:03;;;;;;;1.50;1.40;;;;;;;;;;4866353;29;32400;-66
2021/12/20 08:44:33;;;;;;;1.33;1.23;;;;;;;;;;4867190;29;32532;-65
2021/12/20 08:47:01;;;;;;;1.45;1.35;;;;;;;;;;4866910;29;32287;-65
2021/12/20 08:49:29;;;;;;;1.13;1.13;;;;;;;;;;4866972;29;32384;-65
2021/12/20 08:51:58;;;;;;;1.50;1.40;;;;;;;;;;4866976;29;35139;-66
2021/12/20 08:54:29;;;;;;;1.73;1.63;;;;;;;;;;4865237;29;33812;-64
2021/12/20 08:56:57;;;;;;;1.35;1.35;;;;;;;;;;4865912;29;32480;-65
2021/12/20 08:59:25;;;;;;;1.30;1.30;;;;;;;;;;4866692;29;32466;-66
2021/12/20 09:01:53;;;;;;;1.48;1.38;;;;;;;;;;4865509;29;35137;-65
2021/12/20 09:04:22;;;;;;;1.60;1.50;;;;;;;;;;4866259;29;32326;-66
2021/12/20 09:06:50;;;;;;;1.75;1.65;;;;;;;;;;4866799;29;32495;-64
2021/12/20 09:09:18;;;;;;;1.42;1.33;;;;;;;;;;4866771;29;32444;-66
2021/12/20 09:11:47;;;;;;;1.63;1.52;;;;;;;;;;4866088;29;32342;-66
2021/12/20 09:14:17;;;;;;;1.58;1.48;;;;;;;;;;4866771;29;34677;-66
2021/12/20 09:16:45;;;;;;;1.75;1.65;;;;;;;;;;4866824;29;32403;-66
2021/12/20 09:19:13;;;;;;;1.75;1.65;;;;;;;;;;4866497;29;32408;-65
2021/12/20 09:21:41;;;;;;;1.30;1.30;;;;;;;;;;4866894;29;32282;-65
2021/12/20 09:24:10;;;;;;;1.70;1.60;;;;;;;;;;4866253;29;33957;-66
2021/12/20 09:26:38;;;;;;;1.85;1.67;;;;;;;;;;4866644;29;32657;-65
2021/12/20 09:29:08;;;;;;;2.75;1.70;;;;;;;;;;4866852;29;32319;-65
2021/12/20 09:31:36;;;;;;;1.55;1.45;;;;;;;;;;4866601;29;32291;-66
2021/12/20 09:34:04;;;;;;;1.33;1.30;;;;;;;;;;4866856;29;32384;-63
2021/12/20 09:36:33;;;;;;;1.60;1.50;;;;;;;;;;4866783;29;34302;-65
2021/12/20 09:39:02;;;;;;;1.60;1.50;;;;;;;;;;4866425;29;32407;-66
2021/12/20 09:44:14;;;;;;;1.52;1.42;;;;;;;;;;4866328;29;32388;-65
2021/12/20 09:46:42;;;;;;;1.40;1.30;;;;;;;;;;4866588;29;35551;-66
2021/12/20 09:49:11;;;;;;;1.63;1.52;;;;;;;;;;4864621;29;32441;-66
2021/12/20 09:51:39;;;;;;;1.67;1.58;;;;;;;;;;4866625;29;32302;-67
2021/12/20 09:54:07;;;;;;;1.90;1.70;;;;;;;;;;4866416;29;32272;-66
2021/12/20 09:56:39;;;;;;;1.60;1.50;;;;;;;;;;4866193;29;32445;-67
2021/12/20 09:59:08;;;;;;;2.47;1.50;;;;;;;;;;4866039;29;34811;-66
2021/12/20 10:01:38;;;;;;;1.85;1.75;;;;;;;;;;4866420;29;32251;-65
2021/12/20 10:04:06;;;;;;;1.60;1.50;;;;;;;;;;4865329;29;32349;-66
2021/12/20 10:06:34;;;;;;;3.00;1.50;;;;;;;;;;4866403;29;32244;-66
2021/12/20 10:09:10;;;;;;;1.10;1.10;;;;;;;;;;4865659;29;34137;-64
2021/12/20 10:11:39;;;;;;;1.50;1.40;;;;;;;;;;4866565;29;32410;-65
2021/12/20 10:14:10;;;;;;;1.48;1.38;;;;;;;;;;4865858;29;32821;-65
2021/12/20 10:16:42;;;;;;;1.48;1.40;;;;;;;;;;4864993;29;32377;-66
2021/12/20 10:19:29;;;;;;;1.50;1.40;;;;;;;;;;4865921;29;32354;-67
2021/12/20 10:21:59;;;;;;;1.80;1.70;;;;;;;;;;4865538;29;34677;-64
2021/12/20 10:24:32;;;;;;;1.35;1.27;;;;;;;;;;4866778;29;32492;-65
2021/12/20 10:27:01;;;;;;;1.38;1.27;;;;;;;;;;4868919;29;32444;-66
2021/12/20 10:29:29;;;;;;;1.50;1.40;;;;;;;;;;4868797;29;32479;-66
2021/12/20 10:31:58;;;;;;;1.42;1.30;;;;;;;;;;4868929;29;33979;-65
2021/12/20 10:34:34;;;;;;;1.60;1.50;;;;;;;;;;4868159;29;32580;-66
2021/12/20 10:37:05;;;;;;;1.40;1.30;;;;;;;;;;4868611;29;32727;-65
2021/12/20 10:39:37;;;;;;;1.23;1.23;;;;;;;;;;4868540;29;32413;-65
2021/12/20 10:42:17;;;;;;;1.65;1.55;;;;;;;;;;4868743;29;32279;-66
2021/12/20 10:44:45;;;;;;;1.42;1.33;;;;;;;;;;4868407;29;34748;-65
2021/12/20 10:47:28;;;;;;;1.48;1.38;;;;;;;;;;4868726;29;32640;-65
2021/12/20 10:49:56;;;;;;;1.65;1.55;;;;;;;;;;4868455;29;32320;-66
2021/12/20 10:52:29;;;;;;;2.00;1.67;;;;;;;;;;4868355;29;32580;-66
2021/12/20 10:54:57;;;;;;;1.50;1.40;;;;;;;;;;4868331;29;34603;-66
2021/12/20 10:57:29;;;;;;;1.35;1.25;;;;;;;;;;4868143;29;32299;-66
2021/12/20 11:00:16;;;;;;;1.60;1.50;;;;;;;;;;4868616;29;32441;-66
2021/12/20 11:06:13;;;;;;;1.38;1.38;;;;;;;;;;4868736;29;32363;-66
2021/12/20 11:11:27;;;;;;;1.50;1.40;;;;;;;;;;4868321;29;32397;-66
2021/12/20 11:13:56;;;;;;;1.25;1.25;;;;;;;;;;4868492;29;32575;-67
2021/12/20 11:16:30;;;;;;;1.40;1.30;;;;;;;;;;4868378;29;32449;-65
2021/12/20 11:19:18;;;;;;;1.40;1.30;;;;;;;;;;4868114;29;33937;-65
2021/12/20 11:21:56;;;;;;;1.63;1.52;;;;;;;;;;4867952;29;32477;-64
2021/12/20 11:24:27;;;;;;;1.52;1.40;;;;;;;;;;4867929;29;32273;-65
2021/12/20 11:26:57;;;;;;;1.50;1.40;;;;;;;;;;4868502;29;32616;-66
2021/12/20 11:29:26;;;;;;;1.48;1.38;;;;;;;;;;4868209;29;32426;-66
2021/12/20 11:31:55;;;;;;;1.42;1.33;;;;;;;;;;4867967;29;34601;-66
2021/12/20 11:34:26;;;;;;;1.25;1.25;;;;;;;;;;4867492;29;32514;-66
2021/12/20 11:36:55;;;;;;;1.48;1.38;;;;;;;;;;4867869;29;32475;-65
2021/12/20 11:39:23;;;;;;;1.30;1.20;;;;;;;;;;4868370;29;32288;-65
2021/12/20 11:41:52;;;;;;;1.60;1.50;;;;;;;;;;4867504;29;34899;-66
2021/12/20 11:44:23;;;;;;;1.40;1.30;;;;;;;;;;4867879;29;32349;-65
2021/12/20 11:47:07;;;;;;;0.98;0.93;;;;;;;;;;4868160;29;32331;-65
2021/12/20 11:49:38;;;;;;;1.40;1.30;;;;;;;;;;4867808;29;32417;-65
2021/12/20 11:52:17;;;;;;;1.58;1.48;;;;;;;;;;4868114;29;32422;-66
2021/12/20 11:54:55;;;;;;;1.25;1.20;;;;;;;;;;4867493;29;34114;-65
2021/12/20 11:57:44;;;;;;;1.27;1.27;;;;;;;;;;4867870;29;32241;-66
2021/12/20 12:00:31;;;;;;;2.65;1.40;;;;;;;;;;4867637;29;32388;-66
2021/12/20 12:03:04;;;;;;;1.27;1.27;;;;;;;;;;4867304;29;32213;-65
2021/12/20 12:05:42;;;;;;;1.25;1.20;;;;;;;;;;4867786;29;34438;-66
2021/12/20 12:08:30;;;;;;;1.30;1.30;;;;;;;;;;4867815;29;32255;-64
2021/12/20 12:11:02;;;;;;;1.23;1.17;;;;;;;;;;4867834;29;32267;-66
2021/12/20 12:13:35;;;;;;;1.40;1.30;;;;;;;;;;4867520;29;32428;-65
2021/12/20 12:16:05;;;;;;;1.40;1.25;;;;;;;;;;4867457;29;32341;-66
2021/12/20 12:18:48;;;;;;;1.30;1.20;;;;;;;;;;4867559;29;34621;-66
2021/12/20 12:21:40;;;;;;;1.50;1.40;;;;;;;;;;4867608;29;32296;-66
2021/12/20 12:24:11;;;;;;;1.13;1.13;;;;;;;;;;4867761;29;32323;-66
2021/12/20 12:26:42;;;;;;;1.47;1.37;;;;;;;;;;4866885;29;32495;-66
2021/12/20 12:29:18;;;;;;;1.38;1.33;;;;;;;;;;4867265;29;34447;-66
2021/12/20 12:31:58;;;;;;;1.50;1.40;;;;;;;;;;4866815;29;32463;-65
2021/12/20 12:34:40;;;;;;;1.45;1.35;;;;;;;;;;4867343;29;32399;-65
2021/12/20 12:37:33;;;;;;;1.33;1.30;;;;;;;;;;4867226;29;32213;-66
2021/12/20 12:40:23;;;;;;;1.65;1.55;;;;;;;;;;4866397;29;32436;-66
2021/12/20 12:42:55;;;;;;;1.50;1.40;;;;;;;;;;4846952;29;34342;-66
2021/12/20 12:45:51;;;;;;;1.95;1.60;;;;;;;;;;4859412;29;32549;-67
2021/12/20 12:48:38;;;;;;;2.88;1.70;;;;;;;;;;4866330;29;32734;-66
2021/12/20 12:51:08;;;;;;;1.60;1.50;;;;;;;;;;4867268;29;32498;-64
2021/12/20 12:53:43;;;;;;;1.88;1.77;;;;;;;;;;4866817;29;34791;-65
2021/12/20 12:56:31;;;;;;;1.38;1.27;;;;;;;;;;4866982;29;32318;-66
2021/12/20 12:59:24;;;;;;;1.63;1.20;;;;;;;;;;4866685;29;32461;-66
2021/12/20 13:01:56;;;;;;;1.63;1.52;;;;;;;;;;4863853;29;32598;-65
2021/12/20 13:04:45;;;;;;;1.70;1.60;;;;;;;;;;4866752;29;32313;-65
2021/12/20 13:07:13;;;;;;;1.60;1.50;;;;;;;;;;4867231;29;35563;-65
2021/12/20 13:09:45;;;;;;;1.48;1.42;;;;;;;;;;4866814;29;32536;-65
2021/12/20 13:12:19;;;;;;;1.23;1.23;;;;;;;;;;4866596;29;32323;-67
2021/12/20 13:14:58;;;;;;;1.13;1.13;;;;;;;;;;4867156;29;32423;-64
2021/12/20 13:17:34;;;;;;;1.30;1.20;;;;;;;;;;4866416;29;34837;-65
2021/12/20 13:20:24;;;;;;;1.27;1.17;;;;;;;;;;4867088;29;32239;-65
2021/12/20 13:23:03;;;;;;;1.40;1.35;;;;;;;;;;4865229;29;32256;-65
2021/12/20 13:25:46;;;;;;;1.65;1.55;;;;;;;;;;4867222;29;32443;-65
2021/12/20 13:28:19;;;;;;;1.58;1.40;;;;;;;;;;4866688;29;32517;-65
2021/12/20 13:30:52;;;;;;;1.38;1.38;;;;;;;;;;4866298;29;35237;-65
2021/12/20 13:33:23;;;;;;;1.35;1.35;;;;;;;;;;4866564;29;32335;-63
2021/12/20 13:35:52;;;;;;;1.50;1.40;;;;;;;;;;4866638;29;32557;-66
2021/12/20 13:38:30;;;;;;;1.58;1.48;;;;;;;;;;4866212;29;32595;-65
2021/12/20 13:41:07;;;;;;;1.40;1.30;;;;;;;;;;4866606;29;34929;-66
2021/12/20 13:43:40;;;;;;;1.27;1.17;;;;;;;;;;4866698;29;32315;-65
2021/12/20 13:46:26;;;;;;;1.50;1.45;;;;;;;;;;4863259;29;32447;-65
2021/12/20 13:49:04;;;;;;;1.50;1.45;;;;;;;;;;4847481;29;32339;-66
2021/12/20 13:51:43;;;;;;;1.42;1.35;;;;;;;;;;4847782;29;32382;-64
2021/12/20 13:54:27;;;;;;;1.08;1.08;;;;;;;;;;4846709;29;35450;-65
2021/12/20 13:57:01;;;;;;;1.23;1.23;;;;;;;;;;4847789;29;32206;-64
2021/12/20 13:59:35;;;;;;;1.30;1.27;;;;;;;;;;4847071;29;32421;-66
2021/12/20 14:02:06;;;;;;;1.70;1.60;;;;;;;;;;4847234;29;32750;-64
2021/12/20 14:04:40;;;;;;;1.40;1.40;;;;;;;;;;4847624;29;34710;-64
2021/12/20 14:07:29;;;;;;;1.20;1.20;;;;;;;;;;4847414;29;32354;-64
2021/12/20 14:10:08;;;;;;;1.58;1.48;;;;;;;;;;4847140;29;32396;-64
2021/12/20 14:12:41;;;;;;;1.60;1.50;;;;;;;;;;4847460;29;32232;-64
2021/12/20 14:15:13;;;;;;;1.30;1.27;;;;;;;;;;4846956;29;32205;-64
2021/12/20 14:17:57;;;;;;;1.50;1.40;;;;;;;;;;4847341;29;34209;-65
2021/12/20 14:20:38;;;;;;;1.30;1.25;;;;;;;;;;4846962;29;32688;-63
2021/12/20 14:23:09;;;;;;;1.60;1.50;;;;;;;;;;4847194;29;32517;-64
2021/12/20 14:25:40;;;;;;;1.50;1.40;;;;;;;;;;4847192;29;32395;-67
2021/12/20 14:28:12;;;;;;;;;;;;;;;;;;4853687;29;34617;-63
2021/12/20 14:30:46;;;;;;;1.50;1.40;;;;;;;;;;4864346;29;32342;-65
2021/12/20 14:33:26;;;;;;;0.93;0.93;;;;;;;;;;4864618;29;32370;-65
2021/12/20 14:35:58;;;;;;;1.60;1.50;;;;;;;;;;4865130;29;32406;-65
2021/12/20 14:38:33;;;;;;;0.95;0.95;;;;;;;;;;4864313;29;32535;-66
2021/12/20 14:41:03;;;;;;;1.50;1.40;;;;;;;;;;4864042;29;34303;-65
2021/12/20 14:43:34;;;;;;;1.13;1.13;;;;;;;;;;4858119;29;32546;-66
2021/12/20 14:46:15;;;;;;;1.20;1.10;;;;;;;;;;4862774;29;32512;-64
2021/12/20 14:48:47;;;;;;;1.30;1.20;;;;;;;;;;4864628;29;32457;-66
2021/12/20 14:51:22;;;;;;;1.00;1.00;;;;;;;;;;4864434;29;34033;-65
2021/12/20 14:54:16;;;;;;;1.13;1.10;;;;;;;;;;4860915;29;32216;-65
2021/12/20 14:56:55;;;;;;;1.40;1.30;;;;;;;;;;4864093;29;32229;-63
2021/12/20 14:59:28;;;;;;;10.07;2.40;;;;;;;;;;4865040;29;32489;-63
2021/12/20 15:01:57;;;;;;;6.47;2.55;;;;;;;;;;4863233;29;32607;-63
2021/12/20 15:04:27;;;;;;;4.95;2.22;;;;;;;;;;4858135;29;35726;-63
2021/12/20 15:06:58;;;;;;;7.35;2.85;;;;;;;;;;4862081;29;32926;-62
2021/12/20 15:09:29;;;;;;;12.05;1.95;;;;;;;;;;4861791;29;32460;-62
2021/12/20 15:11:58;;;;;;;1.45;1.35;;;;;;;;;;4865280;29;32561;-64
2021/12/20 15:14:27;;;;;;;3.85;1.58;;;;;;;;;;4866116;29;34957;-64
2021/12/20 15:16:55;;;;;;;1.85;1.40;;;;;;;;;;4866241;29;32557;-65
2021/12/20 15:19:26;;;;;;;3.17;1.50;;;;;;;;;;4866635;29;32555;-65
2021/12/20 15:21:55;;;;;;;3.17;1.13;;;;;;;;;;4867122;29;32506;-65
2021/12/20 15:24:23;;;;;;;1.30;1.17;;;;;;;;;;4864790;29;32309;-63